createdAt,value
2022-12-09T00:01:19.419Z,94871.41
2022-12-09T00:03:47.412Z,94882.41
2022-12-09T00:06:24.075Z,94875.81
2022-12-09T00:08:52.139Z,94860.22
2022-12-09T00:11:20.345Z,94854.91
2022-12-09T00:13:56.481Z,94863.47
2022-12-09T00:16:24.932Z,94885.72
2022-12-09T00:18:53.151Z,94857.41
2022-12-09T00:21:23.252Z,94885.72
2022-12-09T00:23:52.582Z,94898.88
2022-12-09T00:26:21.751Z,94857.16
2022-12-09T00:28:50.400Z,94898.44
2022-12-09T00:31:23.525Z,94867.22
2022-12-09T00:33:57.420Z,94891.28
2022-12-09T00:36:25.667Z,94876.63
2022-12-09T00:38:54.185Z,94881.84
2022-12-09T00:41:21.584Z,94843.13
2022-12-09T00:43:51.552Z,94886.88
2022-12-09T00:46:19.692Z,94892.47
2022-12-09T00:48:47.731Z,94877.44
2022-12-09T00:51:18.117Z,94896.72
2022-12-09T00:53:45.564Z,94861.41
2022-12-09T00:56:14.026Z,94876.00
2022-12-09T00:58:41.094Z,94881.41
2022-12-09T01:01:08.615Z,94867.19
2022-12-09T01:03:36.813Z,94869.88
2022-12-09T01:06:11.874Z,94868.19
2022-12-09T01:08:40.238Z,94864.72
2022-12-09T01:11:37.163Z,94858.59
2022-12-09T01:14:05.752Z,94837.94
2022-12-09T01:16:35.064Z,94846.22
2022-12-09T01:19:05.536Z,94842.22
2022-12-09T01:21:33.730Z,94844.88
2022-12-09T01:24:01.302Z,94822.22
2022-12-09T01:26:28.622Z,94808.41
2022-12-09T01:28:57.649Z,94875.63
2022-12-09T01:31:26.041Z,94861.22
2022-12-09T01:33:56.244Z,94882.63
2022-12-09T01:36:29.991Z,94882.63
2022-12-09T01:38:59.323Z,94674.88
2022-12-09T01:41:27.397Z,94879.09
2022-12-09T01:44:09.879Z,94854.78
2022-12-09T01:46:37.438Z,94829.91
2022-12-09T01:49:06.825Z,94859.88
2022-12-09T01:51:34.504Z,94866.31
2022-12-09T01:54:03.118Z,94816.63
2022-12-09T01:56:33.841Z,94858.91
2022-12-09T01:59:11.128Z,94886.63
2022-12-09T02:01:40.418Z,94861.13
2022-12-09T02:04:08.091Z,94847.59
2022-12-09T02:06:39.180Z,94874.94
2022-12-09T02:09:10.505Z,94767.09
2022-12-09T02:11:41.900Z,94847.81
2022-12-09T02:14:22.356Z,94838.78
2022-12-09T02:17:16.554Z,94849.00
2022-12-09T02:20:15.554Z,94853.13
2022-12-09T02:23:15.780Z,94848.41
2022-12-09T02:25:50.348Z,94844.94
2022-12-09T02:28:23.299Z,94861.94
2022-12-09T02:31:33.850Z,94850.88
2022-12-09T02:34:22.305Z,94848.66
2022-12-09T02:37:03.110Z,94846.38
2022-12-09T02:39:56.652Z,94856.19
2022-12-09T02:42:30.086Z,94803.28
2022-12-09T02:45:01.301Z,94771.31
2022-12-09T02:47:34.876Z,94777.78
2022-12-09T02:50:07.885Z,94847.22
2022-12-09T02:52:37.744Z,94868.75
2022-12-09T02:55:09.528Z,94883.88
2022-12-09T02:57:39.524Z,94880.75
2022-12-09T03:00:14.096Z,94857.69
2022-12-09T03:02:46.141Z,94851.91
2022-12-09T03:05:22.771Z,94878.03
2022-12-09T03:08:16.562Z,94868.00
2022-12-09T03:11:02.254Z,94863.88
2022-12-09T03:13:42.704Z,94874.22
2022-12-09T03:16:34.989Z,94877.47
2022-12-09T03:19:10.712Z,94859.22
2022-12-09T03:21:42.775Z,94847.44
2022-12-09T03:24:13.494Z,94805.53
2022-12-09T03:26:43.220Z,94836.25
2022-12-09T03:29:18.373Z,94859.38
2022-12-09T03:31:47.370Z,94833.13
2022-12-09T03:34:18.846Z,94657.13
2022-12-09T03:36:50.789Z,94854.09
2022-12-09T03:39:38.700Z,94846.94
2022-12-09T03:42:15.388Z,94831.44
2022-12-09T03:44:49.372Z,94862.72
2022-12-09T03:47:17.091Z,94826.94
2022-12-09T03:49:44.289Z,94822.75
2022-12-09T03:52:21.115Z,94855.44
2022-12-09T03:54:54.093Z,94805.34
2022-12-09T03:57:22.604Z,94806.91
2022-12-09T04:00:02.248Z,94830.81
2022-12-09T04:02:40.298Z,94859.81
2022-12-09T04:05:08.549Z,94840.84
2022-12-09T04:07:35.921Z,94844.28
2022-12-09T04:10:04.653Z,94845.50
2022-12-09T04:12:32.166Z,94865.34
2022-12-09T04:14:59.328Z,94810.81
2022-12-09T04:17:26.568Z,94856.13
2022-12-09T04:19:53.967Z,94771.31
2022-12-09T04:22:21.284Z,94827.38
2022-12-09T04:24:48.616Z,94843.16
2022-12-09T04:27:15.918Z,94865.94
2022-12-09T04:29:43.466Z,94866.28
2022-12-09T04:32:11.887Z,94875.63
2022-12-09T04:34:39.458Z,94862.09
2022-12-09T04:37:06.578Z,94821.31
2022-12-09T04:39:33.781Z,94842.69
2022-12-09T04:42:01.241Z,94844.94
2022-12-09T04:44:28.513Z,94869.28
2022-12-09T04:46:55.771Z,94846.66
2022-12-09T04:49:22.876Z,94846.44
2022-12-09T04:51:49.891Z,94864.91
2022-12-09T04:54:17.249Z,94836.44
2022-12-09T04:56:44.596Z,94869.69
2022-12-09T04:59:11.867Z,94885.75
2022-12-09T05:01:39.275Z,94845.19
2022-12-09T05:04:08.869Z,94878.63
2022-12-09T05:06:36.219Z,94871.34
2022-12-09T05:09:04.271Z,94872.88
2022-12-09T05:11:32.160Z,94878.16
2022-12-09T05:13:59.757Z,94871.81
2022-12-09T05:16:27.282Z,94843.16
2022-12-09T05:18:54.731Z,94811.88
2022-12-09T05:21:22.473Z,94853.09
2022-12-09T05:23:49.947Z,94819.19
2022-12-09T05:26:20.654Z,94844.41
2022-12-09T05:28:48.698Z,94830.88
2022-12-09T05:31:20.226Z,94873.72
2022-12-09T05:33:49.740Z,94850.63
2022-12-09T05:36:20.213Z,94856.63
2022-12-09T05:38:47.714Z,94884.38
2022-12-09T05:41:17.828Z,94871.53
2022-12-09T05:43:45.214Z,94870.03
2022-12-09T05:46:13.771Z,94889.59
2022-12-09T05:48:41.652Z,94898.13
2022-12-09T05:51:14.786Z,94891.56
2022-12-09T05:53:42.800Z,94871.69
2022-12-09T05:56:10.592Z,94886.47
2022-12-09T05:58:38.063Z,94886.47
2022-12-09T06:01:09.649Z,94883.13
2022-12-09T06:03:37.885Z,94855.50
2022-12-09T06:06:10.489Z,94875.63
2022-12-09T06:08:38.617Z,94878.38
2022-12-09T06:11:17.273Z,94816.66
2022-12-09T06:13:44.863Z,94860.41
2022-12-09T06:16:13.141Z,94869.81
2022-12-09T06:18:41.138Z,94832.28
2022-12-09T06:21:10.841Z,94882.25
2022-12-09T06:23:43.892Z,94908.22
2022-12-09T06:26:26.340Z,94875.53
2022-12-09T06:28:54.912Z,94908.44
2022-12-09T06:31:22.419Z,94880.00
2022-12-09T06:33:55.412Z,94887.88
2022-12-09T06:36:24.236Z,94840.38
2022-12-09T06:38:51.960Z,94934.50
2022-12-09T06:41:19.344Z,94871.25
2022-12-09T06:43:46.749Z,94883.16
2022-12-09T06:46:21.235Z,94903.50
2022-12-09T06:48:49.149Z,94926.56
2022-12-09T06:51:18.436Z,94852.13
2022-12-09T06:53:46.174Z,94921.06
2022-12-09T06:56:14.983Z,94935.63
2022-12-09T06:58:43.755Z,94913.75
2022-12-09T07:01:15.621Z,94905.22
2022-12-09T07:03:46.617Z,94701.63
2022-12-09T07:06:31.917Z,94916.47
2022-12-09T07:09:12.395Z,94878.91
2022-12-09T07:11:42.366Z,94898.91
2022-12-09T07:14:10.736Z,94882.16
2022-12-09T07:16:39.119Z,94909.59
2022-12-09T07:19:07.333Z,94908.56
2022-12-09T07:21:36.656Z,94874.78
2022-12-09T07:24:04.056Z,94902.44
2022-12-09T07:26:33.620Z,94920.44
2022-12-09T07:29:07.274Z,94906.13
2022-12-09T07:31:35.945Z,94911.91
2022-12-09T07:34:04.891Z,94927.28
2022-12-09T07:36:35.097Z,94914.91
2022-12-09T07:39:06.112Z,94919.41
2022-12-09T07:41:33.816Z,94925.19
2022-12-09T07:44:01.291Z,94884.66
2022-12-09T07:46:28.807Z,94926.69
2022-12-09T07:48:57.612Z,94915.25
2022-12-09T07:51:25.979Z,94862.78
2022-12-09T07:53:54.200Z,94916.75
2022-12-09T07:56:23.236Z,94848.25
2022-12-09T07:58:53.459Z,94907.97
2022-12-09T08:01:24.584Z,94912.13
2022-12-09T08:03:53.442Z,94911.84
2022-12-09T08:06:24.944Z,94892.44
2022-12-09T08:08:53.183Z,94904.56
2022-12-09T08:11:27.308Z,94907.28
2022-12-09T08:13:57.780Z,94881.63
2022-12-09T08:16:25.849Z,94914.13
2022-12-09T08:18:54.619Z,94922.16
2022-12-09T08:21:27.692Z,94936.25
2022-12-09T08:23:57.553Z,94892.22
2022-12-09T08:26:27.882Z,94911.56
2022-12-09T08:28:55.652Z,94934.69
2022-12-09T08:31:25.022Z,94911.38
2022-12-09T08:33:53.996Z,94935.03
2022-12-09T08:36:25.576Z,94919.47
2022-12-09T08:38:53.085Z,94902.09
2022-12-09T08:41:38.678Z,94881.13
2022-12-09T08:44:12.162Z,94905.34
2022-12-09T08:46:41.147Z,94905.41
2022-12-09T08:49:09.174Z,94888.88
2022-12-09T08:51:36.971Z,94895.56
2022-12-09T08:54:05.244Z,94872.47
2022-12-09T08:56:32.931Z,94889.34
2022-12-09T08:59:00.457Z,94867.13
2022-12-09T09:01:34.915Z,94681.16
2022-12-09T09:04:06.126Z,94872.91
2022-12-09T09:06:37.348Z,94835.13
2022-12-09T09:09:06.822Z,94818.75
2022-12-09T09:11:35.526Z,94862.94
2022-12-09T09:14:09.356Z,94848.28
2022-12-09T09:16:39.996Z,94843.34
2022-12-09T09:19:08.096Z,94810.22
2022-12-09T09:21:35.898Z,94833.03
2022-12-09T09:24:07.927Z,94829.31
2022-12-09T09:26:35.122Z,94721.22
2022-12-09T09:29:02.188Z,94834.31
2022-12-09T09:31:29.661Z,94824.78
2022-12-09T09:33:56.950Z,94803.03
2022-12-09T09:36:25.269Z,94804.50
2022-12-09T09:38:55.221Z,94702.13
2022-12-09T09:41:22.554Z,94814.28
2022-12-09T09:43:50.565Z,94758.25
2022-12-09T09:46:32.575Z,94786.63
2022-12-09T09:49:01.548Z,94788.31
2022-12-09T09:51:29.884Z,94787.16
2022-12-09T09:53:57.722Z,94780.03
2022-12-09T09:56:35.413Z,94774.47
2022-12-09T09:59:15.981Z,94789.38
2022-12-09T10:01:50.746Z,94722.66
2022-12-09T10:04:38.727Z,94753.25
2022-12-09T10:07:12.587Z,94748.78
2022-12-09T10:09:50.042Z,94758.19
2022-12-09T10:12:24.691Z,94718.53
2022-12-09T10:15:05.219Z,94716.47
2022-12-09T10:17:36.413Z,94722.47
2022-12-09T10:20:23.471Z,94689.59
2022-12-09T10:22:53.119Z,94708.41
2022-12-09T10:25:25.037Z,94735.81
2022-12-09T10:28:01.670Z,94720.34
2022-12-09T10:30:35.303Z,94727.63
2022-12-09T10:33:04.861Z,94723.66
2022-12-09T10:35:33.015Z,94704.69
2022-12-09T10:38:14.796Z,94709.50
2022-12-09T10:40:49.999Z,94718.31
2022-12-09T10:43:35.216Z,94692.03
2022-12-09T10:46:22.405Z,94643.97
2022-12-09T10:48:50.497Z,94696.00
2022-12-09T10:51:29.265Z,94681.00
2022-12-09T10:53:59.092Z,94704.88
2022-12-09T10:56:30.292Z,94697.88
2022-12-09T10:59:22.545Z,94683.75
2022-12-09T11:01:59.695Z,94669.78
2022-12-09T11:04:31.978Z,94695.50
2022-12-09T11:07:05.408Z,94695.06
2022-12-09T11:09:36.546Z,94650.84
2022-12-09T11:12:16.797Z,94687.34
2022-12-09T11:14:54.055Z,94698.28
2022-12-09T11:17:36.250Z,94637.81
2022-12-09T11:20:07.886Z,94687.19
2022-12-09T11:22:46.007Z,94655.59
2022-12-09T11:25:13.939Z,94670.41
2022-12-09T11:27:56.306Z,94662.47
2022-12-09T11:30:47.120Z,94622.81
2022-12-09T11:33:33.357Z,94667.88
2022-12-09T11:36:03.605Z,94655.81
2022-12-09T11:38:31.102Z,94663.06
2022-12-09T11:41:07.180Z,94653.22
2022-12-09T11:43:44.432Z,94642.53
2022-12-09T11:46:14.428Z,94656.72
2022-12-09T11:49:03.992Z,94611.22
2022-12-09T11:51:37.833Z,94617.38
2022-12-09T11:54:10.666Z,94592.69
2022-12-09T11:56:41.045Z,94603.75
2022-12-09T11:59:18.034Z,94601.59
2022-12-09T12:02:06.752Z,94624.66
2022-12-09T12:04:41.758Z,94583.72
2022-12-09T12:07:18.195Z,94630.31
2022-12-09T12:09:54.283Z,94607.53
2022-12-09T12:12:47.153Z,94604.84
2022-12-09T12:15:21.776Z,94626.00
2022-12-09T12:17:53.423Z,94458.13
2022-12-09T12:20:25.919Z,94477.38
2022-12-09T12:23:18.269Z,94641.31
2022-12-09T12:26:03.761Z,94637.56
2022-12-09T12:28:55.322Z,94576.53
2022-12-09T12:32:08.283Z,94605.97
2022-12-09T12:34:47.389Z,94624.44
2022-12-09T12:37:35.764Z,94602.19
2022-12-09T12:40:26.375Z,94628.75
2022-12-09T12:44:03.654Z,94629.78
2022-12-09T12:46:30.689Z,94639.44
2022-12-09T12:49:22.307Z,94642.38
2022-12-09T12:51:58.323Z,94594.72
2022-12-09T12:54:49.722Z,94608.34
2022-12-09T12:57:34.280Z,94598.44
2022-12-09T13:00:19.420Z,94607.84
2022-12-09T13:03:14.278Z,94600.31
2022-12-09T13:05:45.234Z,94615.31
2022-12-09T13:08:27.152Z,94574.28
2022-12-09T13:10:57.873Z,94458.09
2022-12-09T13:13:42.567Z,94508.44
2022-12-09T13:16:26.262Z,94577.81
2022-12-09T13:18:54.199Z,94604.06
2022-12-09T13:21:22.196Z,94582.41
2022-12-09T13:24:21.726Z,94585.31
2022-12-09T13:26:57.792Z,94612.38
2022-12-09T13:29:30.892Z,94633.22
2022-12-09T13:32:12.392Z,94613.41
2022-12-09T13:34:44.565Z,94619.03
2022-12-09T13:37:30.340Z,94613.44
2022-12-09T13:39:58.325Z,94623.03
2022-12-09T13:42:47.075Z,94616.63
2022-12-09T13:45:31.612Z,94596.56
2022-12-09T13:48:10.614Z,94593.63
2022-12-09T13:50:45.004Z,94612.09
2022-12-09T13:53:21.239Z,94592.31
2022-12-09T13:55:59.946Z,94552.13
2022-12-09T13:58:26.970Z,94589.34
2022-12-09T14:01:05.329Z,94593.63
2022-12-09T14:04:04.653Z,94597.91
2022-12-09T14:06:34.753Z,94601.38
2022-12-09T14:09:40.349Z,94578.41
2022-12-09T14:12:14.113Z,94546.78
2022-12-09T14:14:44.234Z,94601.66
2022-12-09T14:17:19.923Z,94610.19
2022-12-09T14:19:56.461Z,94598.44
2022-12-09T14:22:23.545Z,94583.44
2022-12-09T14:24:58.945Z,94579.13
2022-12-09T14:27:28.440Z,94561.19
2022-12-09T14:30:04.809Z,94569.25
2022-12-09T14:32:36.828Z,94581.00
2022-12-09T14:35:24.206Z,94588.75
2022-12-09T14:38:06.669Z,94563.66
2022-12-09T14:40:42.990Z,94573.81
2022-12-09T14:43:32.257Z,94577.03
2022-12-09T14:46:02.663Z,94579.69
2022-12-09T14:48:34.399Z,94544.91
2022-12-09T14:51:24.928Z,94472.03
2022-12-09T14:54:06.174Z,94564.72
2022-12-09T14:56:34.599Z,94519.94
2022-12-09T14:59:09.919Z,94539.22
2022-12-09T15:01:51.964Z,94537.09
2022-12-09T15:04:37.062Z,94551.31
2022-12-09T15:07:25.399Z,94525.28
2022-12-09T15:09:58.574Z,94524.53
2022-12-09T15:12:36.274Z,94561.13
2022-12-09T15:15:15.589Z,94554.44
2022-12-09T15:17:53.997Z,94550.97
2022-12-09T15:20:24.115Z,94544.81
2022-12-09T15:22:53.900Z,94540.00
2022-12-09T15:25:22.752Z,94515.34
2022-12-09T15:28:26.313Z,94531.09
2022-12-09T15:31:15.507Z,94555.47
2022-12-09T15:33:46.639Z,94557.06
2022-12-09T15:36:27.384Z,94531.09
2022-12-09T15:39:03.471Z,94519.34
2022-12-09T15:42:05.841Z,94532.19
2022-12-09T15:44:45.003Z,94525.19
2022-12-09T15:47:20.720Z,94512.38
2022-12-09T15:50:04.549Z,94535.34
2022-12-09T15:52:38.034Z,94522.75
2022-12-09T15:55:10.176Z,94544.38
2022-12-09T15:57:37.773Z,94549.44
2022-12-09T16:00:06.575Z,94522.97
2022-12-09T16:02:38.334Z,94523.53
2022-12-09T16:05:07.923Z,94511.25
2022-12-09T16:07:34.864Z,94527.25
2022-12-09T16:10:17.853Z,94525.06
2022-12-09T16:12:44.831Z,94511.94
2022-12-09T16:15:14.074Z,94501.00
2022-12-09T16:17:54.273Z,94535.22
2022-12-09T16:20:34.841Z,94511.38
2022-12-09T16:23:03.476Z,94524.78
2022-12-09T16:25:40.635Z,94510.63
2022-12-09T16:28:07.648Z,94479.22
2022-12-09T16:30:46.178Z,94535.72
2022-12-09T16:33:21.046Z,94508.09
2022-12-09T16:36:04.515Z,94526.22
2022-12-09T16:38:34.716Z,94447.16
2022-12-09T16:41:05.722Z,94541.78
2022-12-09T16:43:34.076Z,94514.28
2022-12-09T16:46:02.790Z,94535.56
2022-12-09T16:48:30.704Z,94525.16
2022-12-09T16:51:10.946Z,94503.66
2022-12-09T16:53:51.177Z,94528.03
2022-12-09T16:56:24.973Z,94537.91
2022-12-09T16:58:53.729Z,94535.47
2022-12-09T17:01:25.669Z,94429.03
2022-12-09T17:03:58.045Z,94532.50
2022-12-09T17:06:25.347Z,94520.47
2022-12-09T17:08:52.454Z,94562.16
2022-12-09T17:11:21.784Z,94566.44
2022-12-09T17:13:49.669Z,94521.06
2022-12-09T17:16:17.817Z,94540.47
2022-12-09T17:18:44.811Z,94557.94
2022-12-09T17:21:14.431Z,94542.50
2022-12-09T17:23:42.424Z,94529.94
2022-12-09T17:26:12.677Z,94537.34
2022-12-09T17:28:40.643Z,94516.59
2022-12-09T17:31:13.195Z,94504.06
2022-12-09T17:33:40.193Z,94547.84
2022-12-09T17:36:07.828Z,94533.13
2022-12-09T17:38:35.180Z,94569.72
2022-12-09T17:41:07.634Z,94557.75
2022-12-09T17:43:34.994Z,94555.66
2022-12-09T17:46:03.799Z,94553.25
2022-12-09T17:48:32.136Z,94544.44
2022-12-09T17:50:59.711Z,94526.75
2022-12-09T17:53:26.878Z,94513.00
2022-12-09T17:55:53.830Z,94526.34
2022-12-09T17:58:20.914Z,94507.28
2022-12-09T18:00:53.584Z,94508.59
2022-12-09T18:03:39.351Z,94497.69
2022-12-09T18:06:09.087Z,94518.03
2022-12-09T18:08:37.593Z,94548.75
2022-12-09T18:11:06.558Z,94544.06
2022-12-09T18:13:34.261Z,94544.22
2022-12-09T18:16:01.503Z,94526.13
2022-12-09T18:18:29.118Z,94499.44
2022-12-09T18:21:00.355Z,94514.31
2022-12-09T18:23:28.332Z,94524.19
2022-12-09T18:25:56.258Z,94523.47
2022-12-09T18:28:27.545Z,94495.16
2022-12-09T18:30:55.157Z,94517.47
2022-12-09T18:33:23.769Z,94468.88
2022-12-09T18:35:52.142Z,94487.63
2022-12-09T18:38:19.103Z,94480.03
2022-12-09T18:41:01.325Z,94466.88
2022-12-09T18:43:33.748Z,94517.25
2022-12-09T18:46:06.019Z,94478.78
2022-12-09T18:48:33.729Z,94483.00
2022-12-09T18:51:00.914Z,94497.16
2022-12-09T18:53:27.896Z,94479.03
2022-12-09T18:55:55.679Z,94491.19
2022-12-09T18:58:36.827Z,94484.81
2022-12-09T19:01:25.615Z,94465.56
2022-12-09T19:03:54.829Z,94494.50
2022-12-09T19:06:28.224Z,94497.69
2022-12-09T19:09:20.332Z,94494.78
2022-12-09T19:11:51.479Z,94481.84
2022-12-09T19:14:22.273Z,94465.81
2022-12-09T19:16:49.701Z,94498.91
2022-12-09T19:19:22.921Z,94482.53
2022-12-09T19:21:50.429Z,94472.94
2022-12-09T19:24:30.375Z,94494.06
2022-12-09T19:26:58.331Z,94494.50
2022-12-09T19:29:26.616Z,94473.34
2022-12-09T19:31:54.641Z,94478.47
2022-12-09T19:34:25.071Z,94470.44
2022-12-09T19:36:54.208Z,94445.00
2022-12-09T19:39:23.792Z,94481.88
2022-12-09T19:41:52.895Z,94486.16
2022-12-09T19:44:44.389Z,94474.91
2022-12-09T19:47:12.325Z,94492.22
2022-12-09T19:49:41.444Z,94459.91
2022-12-09T19:52:08.358Z,94484.31
2022-12-09T19:54:35.477Z,94429.88
2022-12-09T19:57:02.552Z,94463.81
2022-12-09T19:59:29.784Z,94452.97
2022-12-09T20:01:56.923Z,94461.44
2022-12-09T20:04:48.020Z,94496.75
2022-12-09T20:07:12.636Z,94479.53
2022-12-09T20:09:39.921Z,94488.66
2022-12-09T20:12:07.038Z,94476.88
2022-12-09T20:14:34.184Z,94468.97
2022-12-09T20:17:01.266Z,94459.84
2022-12-09T20:19:28.411Z,94470.41
2022-12-09T20:21:55.567Z,94365.53
2022-12-09T20:24:22.637Z,94476.88
2022-12-09T20:26:49.692Z,94454.63
2022-12-09T20:29:16.649Z,94454.88
2022-12-09T20:31:43.888Z,94475.97
2022-12-09T20:34:14.000Z,94476.34
2022-12-09T20:36:42.906Z,94477.22
2022-12-09T20:39:19.669Z,94482.91
2022-12-09T20:41:47.654Z,94458.59
2022-12-09T20:44:15.540Z,94482.34
2022-12-09T20:46:49.606Z,94480.88
2022-12-09T20:49:17.459Z,94408.31
2022-12-09T20:51:45.491Z,94453.50
2022-12-09T20:54:13.350Z,94464.53
2022-12-09T20:56:41.132Z,94457.84
2022-12-09T20:59:10.123Z,94414.84
2022-12-09T21:01:37.467Z,94450.66
2022-12-09T21:04:06.436Z,94480.25
2022-12-09T21:06:38.319Z,94431.66
2022-12-09T21:09:09.111Z,94456.19
2022-12-09T21:11:37.212Z,94436.03
2022-12-09T21:14:06.862Z,94428.75
2022-12-09T21:16:35.550Z,94429.25
2022-12-09T21:19:06.093Z,94439.53
2022-12-09T21:21:36.061Z,94440.75
2022-12-09T21:24:04.045Z,94423.06
2022-12-09T21:26:31.565Z,94425.59
2022-12-09T21:29:00.879Z,94434.44
2022-12-09T21:31:31.159Z,94428.69
2022-12-09T21:34:04.507Z,94425.81
2022-12-09T21:36:34.732Z,94398.44
2022-12-09T21:39:02.039Z,94405.66
2022-12-09T21:41:31.771Z,94446.53
2022-12-09T21:43:59.527Z,94417.81
2022-12-09T21:46:32.125Z,94426.75
2022-12-09T21:49:03.948Z,94383.16
2022-12-09T21:51:32.666Z,94420.97
2022-12-09T21:54:02.359Z,94435.19
2022-12-09T21:56:32.931Z,94426.16
2022-12-09T21:59:00.585Z,94417.78
2022-12-09T22:01:39.326Z,94426.28
2022-12-09T22:04:09.948Z,94431.06
2022-12-09T22:06:37.972Z,94442.16
2022-12-09T22:09:07.122Z,94403.88
2022-12-09T22:11:36.962Z,94418.53
2022-12-09T22:14:06.063Z,94389.41
2022-12-09T22:16:42.329Z,94396.66
2022-12-09T22:19:13.741Z,94411.19
2022-12-09T22:21:40.828Z,94409.16
2022-12-09T22:24:09.340Z,94385.66
2022-12-09T22:26:36.796Z,94398.50
2022-12-09T22:29:05.729Z,94422.69
2022-12-09T22:31:36.791Z,94426.69
2022-12-09T22:34:18.778Z,94393.66
2022-12-09T22:36:47.582Z,94396.00
2022-12-09T22:39:21.087Z,94392.75
2022-12-09T22:41:48.179Z,94399.53
2022-12-09T22:44:18.172Z,94370.38
2022-12-09T22:46:46.764Z,94395.03
2022-12-09T22:49:15.537Z,94426.03
2022-12-09T22:51:43.645Z,94395.13
2022-12-09T22:54:11.049Z,94364.06
2022-12-09T22:56:40.765Z,94374.72
2022-12-09T22:59:08.393Z,94369.44
2022-12-09T23:01:37.340Z,94371.97
2022-12-09T23:04:06.238Z,94380.31
2022-12-09T23:06:35.869Z,94384.59
2022-12-09T23:09:03.730Z,94390.66
2022-12-09T23:11:30.752Z,94385.09
2022-12-09T23:13:59.713Z,94393.94
2022-12-09T23:16:27.401Z,94186.22
2022-12-09T23:18:56.426Z,94374.38
2022-12-09T23:21:27.053Z,94379.88
2022-12-09T23:24:00.905Z,94347.91
2022-12-09T23:26:30.542Z,94378.19
2022-12-09T23:29:01.091Z,94350.88
2022-12-09T23:31:31.462Z,94350.31
2022-12-09T23:34:00.094Z,94303.78
2022-12-09T23:36:36.045Z,94365.00
2022-12-09T23:39:05.463Z,94338.97
2022-12-09T23:41:32.467Z,94340.59
2022-12-09T23:43:59.507Z,94365.72
2022-12-09T23:46:45.601Z,94358.81
2022-12-09T23:49:12.966Z,94359.84
2022-12-09T23:51:43.859Z,94369.69
2022-12-09T23:54:14.626Z,94338.72
2022-12-09T23:56:44.197Z,94361.78
2022-12-09T23:59:12.205Z,94354.34
